sensor_id;sensor_type;location;lat;lon;timestamp;P1;P2;P0
55518;PMS5003;41724;51.176;-0.708;2023-05-10T00:00:27;7;7;
55518;PMS5003;41724;51.176;-0.708;2023-05-10T00:02:54;5;4;
55518;PMS5003;41724;51.176;-0.708;2023-05-10T00:05:22;6;6;
55518;PMS5003;41724;51.176;-0.708;2023-05-10T00:07:49;5;5;
55518;PMS5003;41724;51.176;-0.708;2023-05-10T00:10:16;6;6;
55518;PMS5003;41724;51.176;-0.708;2023-05-10T00:12:43;7;7;
55518;PMS5003;41724;51.176;-0.708;2023-05-10T00:15:10;7;7;
55518;PMS5003;41724;51.176;-0.708;2023-05-10T00:17:37;5;5;
55518;PMS5003;41724;51.176;-0.708;2023-05-10T00:20:04;5;5;
55518;PMS5003;41724;51.176;-0.708;2023-05-10T00:22:32;6;6;
55518;PMS5003;41724;51.176;-0.708;2023-05-10T00:24:59;6;6;
55518;PMS5003;41724;51.176;-0.708;2023-05-10T00:27:26;5;5;
55518;PMS5003;41724;51.176;-0.708;2023-05-10T00:29:53;8;7;
55518;PMS5003;41724;51.176;-0.708;2023-05-10T00:32:20;7;7;
55518;PMS5003;41724;51.176;-0.708;2023-05-10T00:34:47;7;6;
55518;PMS5003;41724;51.176;-0.708;2023-05-10T00:37:15;7;7;
55518;PMS5003;41724;51.176;-0.708;2023-05-10T00:39:42;10;8;
55518;PMS5003;41724;51.176;-0.708;2023-05-10T00:42:09;7;7;
55518;PMS5003;41724;51.176;-0.708;2023-05-10T00:44:36;8;7;
55518;PMS5003;41724;51.176;-0.708;2023-05-10T00:47:03;7;7;
55518;PMS5003;41724;51.176;-0.708;2023-05-10T00:49:30;10;9;
55518;PMS5003;41724;51.176;-0.708;2023-05-10T00:51:57;9;8;
55518;PMS5003;41724;51.176;-0.708;2023-05-10T00:54:24;9;9;
55518;PMS5003;41724;51.176;-0.708;2023-05-10T00:56:51;10;10;
55518;PMS5003;41724;51.176;-0.708;2023-05-10T00:59:18;11;9;
55518;PMS5003;41724;51.176;-0.708;2023-05-10T01:01:45;9;9;
55518;PMS5003;41724;51.176;-0.708;2023-05-10T01:04:13;12;11;
55518;PMS5003;41724;51.176;-0.708;2023-05-10T01:06:41;10;10;
55518;PMS5003;41724;51.176;-0.708;2023-05-10T01:09:09;10;10;
55518;PMS5003;41724;51.176;-0.708;2023-05-10T01:11:37;12;12;
55518;PMS5003;41724;51.176;-0.708;2023-05-10T01:14:06;12;12;
55518;PMS5003;41724;51.176;-0.708;2023-05-10T01:16:34;12;12;
55518;PMS5003;41724;51.176;-0.708;2023-05-10T01:19:04;14;12;
55518;PMS5003;41724;51.176;-0.708;2023-05-10T01:21:37;14;13;
55518;PMS5003;41724;51.176;-0.708;2023-05-10T01:24:21;12;12;
55518;PMS5003;41724;51.176;-0.708;2023-05-10T01:27:25;13;11;
55518;PMS5003;41724;51.176;-0.708;2023-05-10T01:30:27;13;13;
55518;PMS5003;41724;51.176;-0.708;2023-05-10T01:33:11;16;13;
55518;PMS5003;41724;51.176;-0.708;2023-05-10T01:35:47;14;13;
55518;PMS5003;41724;51.176;-0.708;2023-05-10T01:38:26;12;12;
55518;PMS5003;41724;51.176;-0.708;2023-05-10T01:41:04;14;12;
55518;PMS5003;41724;51.176;-0.708;2023-05-10T01:43:42;13;13;
55518;PMS5003;41724;51.176;-0.708;2023-05-10T01:46:22;10;10;
55518;PMS5003;41724;51.176;-0.708;2023-05-10T01:48:55;14;14;
55518;PMS5003;41724;51.176;-0.708;2023-05-10T01:51:25;14;14;
55518;PMS5003;41724;51.176;-0.708;2023-05-10T01:53:58;12;12;
55518;PMS5003;41724;51.176;-0.708;2023-05-10T01:56:30;10;10;
55518;PMS5003;41724;51.176;-0.708;2023-05-10T01:59:05;15;14;
55518;PMS5003;41724;51.176;-0.708;2023-05-10T02:01:37;13;13;
55518;PMS5003;41724;51.176;-0.708;2023-05-10T02:04:04;14;13;
55518;PMS5003;41724;51.176;-0.708;2023-05-10T02:06:33;12;12;
55518;PMS5003;41724;51.176;-0.708;2023-05-10T02:09:02;13;11;
55518;PMS5003;41724;51.176;-0.708;2023-05-10T02:11:31;14;12;
55518;PMS5003;41724;51.176;-0.708;2023-05-10T02:13:59;11;11;
55518;PMS5003;41724;51.176;-0.708;2023-05-10T02:16:27;11;11;
55518;PMS5003;41724;51.176;-0.708;2023-05-10T02:18:55;14;13;
55518;PMS5003;41724;51.176;-0.708;2023-05-10T02:21:24;15;14;
55518;PMS5003;41724;51.176;-0.708;2023-05-10T02:23:55;13;11;
55518;PMS5003;41724;51.176;-0.708;2023-05-10T02:26:24;12;12;
55518;PMS5003;41724;51.176;-0.708;2023-05-10T02:28:53;14;14;
55518;PMS5003;41724;51.176;-0.708;2023-05-10T02:31:22;13;12;
55518;PMS5003;41724;51.176;-0.708;2023-05-10T02:33:50;12;11;
55518;PMS5003;41724;51.176;-0.708;2023-05-10T02:36:17;12;12;
55518;PMS5003;41724;51.176;-0.708;2023-05-10T02:38:47;13;12;
55518;PMS5003;41724;51.176;-0.708;2023-05-10T02:41:16;18;17;
55518;PMS5003;41724;51.176;-0.708;2023-05-10T02:43:44;13;13;
55518;PMS5003;41724;51.176;-0.708;2023-05-10T02:46:13;15;15;
55518;PMS5003;41724;51.176;-0.708;2023-05-10T02:48:40;13;13;
55518;PMS5003;41724;51.176;-0.708;2023-05-10T02:51:07;14;14;
55518;PMS5003;41724;51.176;-0.708;2023-05-10T02:53:35;16;16;
55518;PMS5003;41724;51.176;-0.708;2023-05-10T02:56:05;11;11;
55518;PMS5003;41724;51.176;-0.708;2023-05-10T02:58:40;13;12;
55518;PMS5003;41724;51.176;-0.708;2023-05-10T03:01:07;11;10;
55518;PMS5003;41724;51.176;-0.708;2023-05-10T03:03:34;14;12;
55518;PMS5003;41724;51.176;-0.708;2023-05-10T03:06:01;12;12;
55518;PMS5003;41724;51.176;-0.708;2023-05-10T03:08:28;15;15;
55518;PMS5003;41724;51.176;-0.708;2023-05-10T03:11:01;13;12;
55518;PMS5003;41724;51.176;-0.708;2023-05-10T03:13:42;14;14;
55518;PMS5003;41724;51.176;-0.708;2023-05-10T03:16:15;14;12;
55518;PMS5003;41724;51.176;-0.708;2023-05-10T03:18:50;12;11;
55518;PMS5003;41724;51.176;-0.708;2023-05-10T03:21:24;10;10;
55518;PMS5003;41724;51.176;-0.708;2023-05-10T03:23:57;14;12;
55518;PMS5003;41724;51.176;-0.708;2023-05-10T03:26:33;12;12;
55518;PMS5003;41724;51.176;-0.708;2023-05-10T03:29:01;13;13;
55518;PMS5003;41724;51.176;-0.708;2023-05-10T03:31:30;12;11;
55518;PMS5003;41724;51.176;-0.708;2023-05-10T03:34:00;12;11;
55518;PMS5003;41724;51.176;-0.708;2023-05-10T03:36:27;10;9;
55518;PMS5003;41724;51.176;-0.708;2023-05-10T03:38:54;13;13;
55518;PMS5003;41724;51.176;-0.708;2023-05-10T03:41:21;13;12;
55518;PMS5003;41724;51.176;-0.708;2023-05-10T03:43:48;13;11;
55518;PMS5003;41724;51.176;-0.708;2023-05-10T03:46:15;11;10;
55518;PMS5003;41724;51.176;-0.708;2023-05-10T03:48:42;11;11;
55518;PMS5003;41724;51.176;-0.708;2023-05-10T03:51:09;12;11;
55518;PMS5003;41724;51.176;-0.708;2023-05-10T03:53:36;9;9;
55518;PMS5003;41724;51.176;-0.708;2023-05-10T03:56:03;9;9;
55518;PMS5003;41724;51.176;-0.708;2023-05-10T03:58:31;10;9;
55518;PMS5003;41724;51.176;-0.708;2023-05-10T04:00:58;9;9;
55518;PMS5003;41724;51.176;-0.708;2023-05-10T04:03:25;11;11;
55518;PMS5003;41724;51.176;-0.708;2023-05-10T04:05:58;11;11;
55518;PMS5003;41724;51.176;-0.708;2023-05-10T04:08:25;13;13;
55518;PMS5003;41724;51.176;-0.708;2023-05-10T04:10:52;9;9;
55518;PMS5003;41724;51.176;-0.708;2023-05-10T04:13:19;11;10;
55518;PMS5003;41724;51.176;-0.708;2023-05-10T04:15:46;13;12;
55518;PMS5003;41724;51.176;-0.708;2023-05-10T04:18:13;14;13;
55518;PMS5003;41724;51.176;-0.708;2023-05-10T04:20:40;15;14;
55518;PMS5003;41724;51.176;-0.708;2023-05-10T04:23:08;10;10;
55518;PMS5003;41724;51.176;-0.708;2023-05-10T04:25:34;12;11;
55518;PMS5003;41724;51.176;-0.708;2023-05-10T04:28:02;14;13;
55518;PMS5003;41724;51.176;-0.708;2023-05-10T04:30:29;9;9;
55518;PMS5003;41724;51.176;-0.708;2023-05-10T04:32:55;8;8;
55518;PMS5003;41724;51.176;-0.708;2023-05-10T04:35:22;11;10;
55518;PMS5003;41724;51.176;-0.708;2023-05-10T04:37:50;10;10;
55518;PMS5003;41724;51.176;-0.708;2023-05-10T04:40:17;12;12;
55518;PMS5003;41724;51.176;-0.708;2023-05-10T04:42:44;10;10;
55518;PMS5003;41724;51.176;-0.708;2023-05-10T04:45:11;13;12;
55518;PMS5003;41724;51.176;-0.708;2023-05-10T04:47:39;13;13;
55518;PMS5003;41724;51.176;-0.708;2023-05-10T04:50:06;13;10;
55518;PMS5003;41724;51.176;-0.708;2023-05-10T04:52:34;10;9;
55518;PMS5003;41724;51.176;-0.708;2023-05-10T04:55:01;11;11;
55518;PMS5003;41724;51.176;-0.708;2023-05-10T04:57:28;11;10;
55518;PMS5003;41724;51.176;-0.708;2023-05-10T04:59:55;12;12;
55518;PMS5003;41724;51.176;-0.708;2023-05-10T05:02:22;13;12;
55518;PMS5003;41724;51.176;-0.708;2023-05-10T05:04:49;11;11;
55518;PMS5003;41724;51.176;-0.708;2023-05-10T05:07:16;14;13;
55518;PMS5003;41724;51.176;-0.708;2023-05-10T05:09:43;9;8;
55518;PMS5003;41724;51.176;-0.708;2023-05-10T05:12:10;14;13;
55518;PMS5003;41724;51.176;-0.708;2023-05-10T05:14:38;10;9;
55518;PMS5003;41724;51.176;-0.708;2023-05-10T05:17:05;11;10;
55518;PMS5003;41724;51.176;-0.708;2023-05-10T05:19:32;9;9;
55518;PMS5003;41724;51.176;-0.708;2023-05-10T05:21:59;11;11;
55518;PMS5003;41724;51.176;-0.708;2023-05-10T05:24:26;10;9;
55518;PMS5003;41724;51.176;-0.708;2023-05-10T05:26:54;12;11;
55518;PMS5003;41724;51.176;-0.708;2023-05-10T05:29:21;11;11;
55518;PMS5003;41724;51.176;-0.708;2023-05-10T05:31:48;11;11;
55518;PMS5003;41724;51.176;-0.708;2023-05-10T05:34:15;13;12;
55518;PMS5003;41724;51.176;-0.708;2023-05-10T05:36:42;12;12;
55518;PMS5003;41724;51.176;-0.708;2023-05-10T05:39:08;15;15;
55518;PMS5003;41724;51.176;-0.708;2023-05-10T05:41:36;19;17;
55518;PMS5003;41724;51.176;-0.708;2023-05-10T05:44:03;16;16;
55518;PMS5003;41724;51.176;-0.708;2023-05-10T05:46:30;20;20;
55518;PMS5003;41724;51.176;-0.708;2023-05-10T05:48:56;14;13;
55518;PMS5003;41724;51.176;-0.708;2023-05-10T05:51:24;16;14;
55518;PMS5003;41724;51.176;-0.708;2023-05-10T05:53:51;16;15;
55518;PMS5003;41724;51.176;-0.708;2023-05-10T05:56:18;19;18;
55518;PMS5003;41724;51.176;-0.708;2023-05-10T05:58:45;17;13;
55518;PMS5003;41724;51.176;-0.708;2023-05-10T06:01:12;15;14;
55518;PMS5003;41724;51.176;-0.708;2023-05-10T06:03:39;17;15;
55518;PMS5003;41724;51.176;-0.708;2023-05-10T06:06:06;19;19;
55518;PMS5003;41724;51.176;-0.708;2023-05-10T06:08:33;16;16;
55518;PMS5003;41724;51.176;-0.708;2023-05-10T06:11:00;18;18;
55518;PMS5003;41724;51.176;-0.708;2023-05-10T06:13:27;16;15;
55518;PMS5003;41724;51.176;-0.708;2023-05-10T06:15:54;21;21;
55518;PMS5003;41724;51.176;-0.708;2023-05-10T06:18:21;21;20;
55518;PMS5003;41724;51.176;-0.708;2023-05-10T06:20:49;15;14;
55518;PMS5003;41724;51.176;-0.708;2023-05-10T06:23:16;20;19;
55518;PMS5003;41724;51.176;-0.708;2023-05-10T06:25:43;21;19;
55518;PMS5003;41724;51.176;-0.708;2023-05-10T06:28:11;21;19;
55518;PMS5003;41724;51.176;-0.708;2023-05-10T06:30:37;17;16;
55518;PMS5003;41724;51.176;-0.708;2023-05-10T06:33:04;16;15;
55518;PMS5003;41724;51.176;-0.708;2023-05-10T06:35:31;21;21;
55518;PMS5003;41724;51.176;-0.708;2023-05-10T06:37:58;20;20;
55518;PMS5003;41724;51.176;-0.708;2023-05-10T06:40:26;23;22;
55518;PMS5003;41724;51.176;-0.708;2023-05-10T06:42:52;19;19;
55518;PMS5003;41724;51.176;-0.708;2023-05-10T06:45:20;24;20;
55518;PMS5003;41724;51.176;-0.708;2023-05-10T06:47:47;20;19;
55518;PMS5003;41724;51.176;-0.708;2023-05-10T06:50:14;21;19;
55518;PMS5003;41724;51.176;-0.708;2023-05-10T06:52:41;27;24;
55518;PMS5003;41724;51.176;-0.708;2023-05-10T06:55:08;19;18;
55518;PMS5003;41724;51.176;-0.708;2023-05-10T06:57:36;20;20;
55518;PMS5003;41724;51.176;-0.708;2023-05-10T07:00:03;20;20;
55518;PMS5003;41724;51.176;-0.708;2023-05-10T07:02:31;20;18;
55518;PMS5003;41724;51.176;-0.708;2023-05-10T07:04:58;22;18;
55518;PMS5003;41724;51.176;-0.708;2023-05-10T07:07:26;22;22;
55518;PMS5003;41724;51.176;-0.708;2023-05-10T07:09:53;18;17;
55518;PMS5003;41724;51.176;-0.708;2023-05-10T07:12:19;21;20;
55518;PMS5003;41724;51.176;-0.708;2023-05-10T07:14:47;16;16;
55518;PMS5003;41724;51.176;-0.708;2023-05-10T07:17:14;17;17;
55518;PMS5003;41724;51.176;-0.708;2023-05-10T07:19:41;19;17;
55518;PMS5003;41724;51.176;-0.708;2023-05-10T07:22:07;21;19;
55518;PMS5003;41724;51.176;-0.708;2023-05-10T07:24:35;15;15;
55518;PMS5003;41724;51.176;-0.708;2023-05-10T07:27:02;19;18;
55518;PMS5003;41724;51.176;-0.708;2023-05-10T07:29:29;18;15;
55518;PMS5003;41724;51.176;-0.708;2023-05-10T07:31:56;13;13;
55518;PMS5003;41724;51.176;-0.708;2023-05-10T07:34:23;18;17;
55518;PMS5003;41724;51.176;-0.708;2023-05-10T07:36:51;13;12;
55518;PMS5003;41724;51.176;-0.708;2023-05-10T07:39:18;15;14;
55518;PMS5003;41724;51.176;-0.708;2023-05-10T07:41:44;13;13;
55518;PMS5003;41724;51.176;-0.708;2023-05-10T07:44:12;12;12;
55518;PMS5003;41724;51.176;-0.708;2023-05-10T07:46:38;14;12;
55518;PMS5003;41724;51.176;-0.708;2023-05-10T07:49:05;14;13;
55518;PMS5003;41724;51.176;-0.708;2023-05-10T07:51:32;10;9;
55518;PMS5003;41724;51.176;-0.708;2023-05-10T07:54:00;13;12;
55518;PMS5003;41724;51.176;-0.708;2023-05-10T07:56:28;14;13;
55518;PMS5003;41724;51.176;-0.708;2023-05-10T07:58:56;12;12;
55518;PMS5003;41724;51.176;-0.708;2023-05-10T08:01:23;14;12;
55518;PMS5003;41724;51.176;-0.708;2023-05-10T08:03:51;13;12;
55518;PMS5003;41724;51.176;-0.708;2023-05-10T08:06:18;15;13;
55518;PMS5003;41724;51.176;-0.708;2023-05-10T08:08:46;9;9;
55518;PMS5003;41724;51.176;-0.708;2023-05-10T08:11:14;13;11;
55518;PMS5003;41724;51.176;-0.708;2023-05-10T08:13:41;10;10;
55518;PMS5003;41724;51.176;-0.708;2023-05-10T08:16:08;11;10;
55518;PMS5003;41724;51.176;-0.708;2023-05-10T08:18:35;11;11;
55518;PMS5003;41724;51.176;-0.708;2023-05-10T08:21:02;11;10;
55518;PMS5003;41724;51.176;-0.708;2023-05-10T08:23:29;9;7;
55518;PMS5003;41724;51.176;-0.708;2023-05-10T08:25:56;11;9;
55518;PMS5003;41724;51.176;-0.708;2023-05-10T08:28:23;10;9;
55518;PMS5003;41724;51.176;-0.708;2023-05-10T08:30:51;12;12;
55518;PMS5003;41724;51.176;-0.708;2023-05-10T08:33:18;16;14;
55518;PMS5003;41724;51.176;-0.708;2023-05-10T08:35:45;15;12;
55518;PMS5003;41724;51.176;-0.708;2023-05-10T08:38:12;10;10;
55518;PMS5003;41724;51.176;-0.708;2023-05-10T08:40:41;18;17;
55518;PMS5003;41724;51.176;-0.708;2023-05-10T08:43:10;14;13;
55518;PMS5003;41724;51.176;-0.708;2023-05-10T08:45:39;11;11;
55518;PMS5003;41724;51.176;-0.708;2023-05-10T08:48:08;12;12;
55518;PMS5003;41724;51.176;-0.708;2023-05-10T08:50:37;10;10;
55518;PMS5003;41724;51.176;-0.708;2023-05-10T08:53:06;9;9;
55518;PMS5003;41724;51.176;-0.708;2023-05-10T08:55:37;8;7;
55518;PMS5003;41724;51.176;-0.708;2023-05-10T08:58:04;12;12;
55518;PMS5003;41724;51.176;-0.708;2023-05-10T09:00:32;9;9;
55518;PMS5003;41724;51.176;-0.708;2023-05-10T09:03:00;9;8;
55518;PMS5003;41724;51.176;-0.708;2023-05-10T09:05:29;10;10;
55518;PMS5003;41724;51.176;-0.708;2023-05-10T09:08:01;13;9;
55518;PMS5003;41724;51.176;-0.708;2023-05-10T09:10:28;13;10;
55518;PMS5003;41724;51.176;-0.708;2023-05-10T09:12:57;11;9;
55518;PMS5003;41724;51.176;-0.708;2023-05-10T09:15:24;14;12;
55518;PMS5003;41724;51.176;-0.708;2023-05-10T09:17:51;8;8;
55518;PMS5003;41724;51.176;-0.708;2023-05-10T09:20:19;10;9;
55518;PMS5003;41724;51.176;-0.708;2023-05-10T09:22:46;13;13;
55518;PMS5003;41724;51.176;-0.708;2023-05-10T09:25:14;10;10;
55518;PMS5003;41724;51.176;-0.708;2023-05-10T09:27:44;11;11;
55518;PMS5003;41724;51.176;-0.708;2023-05-10T09:30:15;11;10;
55518;PMS5003;41724;51.176;-0.708;2023-05-10T09:32:44;11;10;
55518;PMS5003;41724;51.176;-0.708;2023-05-10T09:35:14;10;9;
55518;PMS5003;41724;51.176;-0.708;2023-05-10T09:37:43;11;10;
55518;PMS5003;41724;51.176;-0.708;2023-05-10T09:40:13;11;10;
55518;PMS5003;41724;51.176;-0.708;2023-05-10T09:42:50;10;10;
55518;PMS5003;41724;51.176;-0.708;2023-05-10T09:45:19;12;12;
55518;PMS5003;41724;51.176;-0.708;2023-05-10T09:47:46;11;10;
55518;PMS5003;41724;51.176;-0.708;2023-05-10T09:50:14;10;9;
55518;PMS5003;41724;51.176;-0.708;2023-05-10T09:52:49;13;12;
55518;PMS5003;41724;51.176;-0.708;2023-05-10T09:55:19;12;11;
55518;PMS5003;41724;51.176;-0.708;2023-05-10T09:57:47;10;9;
55518;PMS5003;41724;51.176;-0.708;2023-05-10T10:00:17;11;11;
55518;PMS5003;41724;51.176;-0.708;2023-05-10T10:02:45;12;11;
55518;PMS5003;41724;51.176;-0.708;2023-05-10T10:05:13;10;10;
55518;PMS5003;41724;51.176;-0.708;2023-05-10T10:07:41;8;8;
55518;PMS5003;41724;51.176;-0.708;2023-05-10T10:10:08;8;8;
55518;PMS5003;41724;51.176;-0.708;2023-05-10T10:12:37;12;10;
55518;PMS5003;41724;51.176;-0.708;2023-05-10T10:15:05;9;9;
55518;PMS5003;41724;51.176;-0.708;2023-05-10T10:17:34;10;9;
55518;PMS5003;41724;51.176;-0.708;2023-05-10T10:20:02;7;6;
55518;PMS5003;41724;51.176;-0.708;2023-05-10T10:22:30;9;8;
55518;PMS5003;41724;51.176;-0.708;2023-05-10T10:24:57;7;7;
55518;PMS5003;41724;51.176;-0.708;2023-05-10T10:27:26;10;9;
55518;PMS5003;41724;51.176;-0.708;2023-05-10T10:30:10;7;7;
55518;PMS5003;41724;51.176;-0.708;2023-05-10T10:32:55;7;7;
55518;PMS5003;41724;51.176;-0.708;2023-05-10T10:35:39;4;4;
55518;PMS5003;41724;51.176;-0.708;2023-05-10T10:38:07;8;8;
55518;PMS5003;41724;51.176;-0.708;2023-05-10T10:40:35;4;4;
55518;PMS5003;41724;51.176;-0.708;2023-05-10T10:43:35;3;3;
55518;PMS5003;41724;51.176;-0.708;2023-05-10T10:46:10;4;4;
55518;PMS5003;41724;51.176;-0.708;2023-05-10T10:48:39;5;4;
55518;PMS5003;41724;51.176;-0.708;2023-05-10T10:51:07;4;4;
55518;PMS5003;41724;51.176;-0.708;2023-05-10T10:53:33;6;4;
55518;PMS5003;41724;51.176;-0.708;2023-05-10T10:56:08;5;5;
55518;PMS5003;41724;51.176;-0.708;2023-05-10T10:58:36;4;4;
55518;PMS5003;41724;51.176;-0.708;2023-05-10T11:01:12;3;3;
55518;PMS5003;41724;51.176;-0.708;2023-05-10T11:03:54;4;4;
55518;PMS5003;41724;51.176;-0.708;2023-05-10T11:06:44;3;3;
55518;PMS5003;41724;51.176;-0.708;2023-05-10T11:09:12;6;4;
55518;PMS5003;41724;51.176;-0.708;2023-05-10T11:11:48;3;3;
55518;PMS5003;41724;51.176;-0.708;2023-05-10T11:14:19;4;4;
55518;PMS5003;41724;51.176;-0.708;2023-05-10T11:16:47;3;3;
55518;PMS5003;41724;51.176;-0.708;2023-05-10T11:19:14;3;2;
55518;PMS5003;41724;51.176;-0.708;2023-05-10T11:21:44;6;5;
55518;PMS5003;41724;51.176;-0.708;2023-05-10T11:24:13;7;6;
55518;PMS5003;41724;51.176;-0.708;2023-05-10T11:26:42;7;5;
55518;PMS5003;41724;51.176;-0.708;2023-05-10T11:29:09;5;3;
55518;PMS5003;41724;51.176;-0.708;2023-05-10T11:31:41;4;3;
55518;PMS5003;41724;51.176;-0.708;2023-05-10T11:34:08;4;2;
55518;PMS5003;41724;51.176;-0.708;2023-05-10T11:36:35;3;2;
55518;PMS5003;41724;51.176;-0.708;2023-05-10T11:39:03;2;2;
55518;PMS5003;41724;51.176;-0.708;2023-05-10T11:41:31;2;2;
55518;PMS5003;41724;51.176;-0.708;2023-05-10T11:43:58;1;1;
55518;PMS5003;41724;51.176;-0.708;2023-05-10T11:46:26;3;3;
55518;PMS5003;41724;51.176;-0.708;2023-05-10T11:48:55;1;1;
55518;PMS5003;41724;51.176;-0.708;2023-05-10T11:51:25;2;2;
55518;PMS5003;41724;51.176;-0.708;2023-05-10T11:53:53;2;0;
55518;PMS5003;41724;51.176;-0.708;2023-05-10T11:56:21;1;1;
55518;PMS5003;41724;51.176;-0.708;2023-05-10T11:58:53;1;1;
55518;PMS5003;41724;51.176;-0.708;2023-05-10T12:01:22;3;3;
55518;PMS5003;41724;51.176;-0.708;2023-05-10T12:03:50;1;1;
55518;PMS5003;41724;51.176;-0.708;2023-05-10T12:06:20;2;2;
55518;PMS5003;41724;51.176;-0.708;2023-05-10T12:08:48;3;3;
55518;PMS5003;41724;51.176;-0.708;2023-05-10T12:11:15;3;3;
55518;PMS5003;41724;51.176;-0.708;2023-05-10T12:13:43;4;4;
55518;PMS5003;41724;51.176;-0.708;2023-05-10T12:16:14;3;3;
55518;PMS5003;41724;51.176;-0.708;2023-05-10T12:18:42;3;2;
55518;PMS5003;41724;51.176;-0.708;2023-05-10T12:21:11;5;4;
55518;PMS5003;41724;51.176;-0.708;2023-05-10T12:23:39;4;4;
55518;PMS5003;41724;51.176;-0.708;2023-05-10T12:26:08;3;3;
55518;PMS5003;41724;51.176;-0.708;2023-05-10T12:28:36;4;2;
55518;PMS5003;41724;51.176;-0.708;2023-05-10T12:31:04;2;2;
55518;PMS5003;41724;51.176;-0.708;2023-05-10T12:33:35;1;1;
55518;PMS5003;41724;51.176;-0.708;2023-05-10T12:36:04;2;2;
55518;PMS5003;41724;51.176;-0.708;2023-05-10T12:38:32;3;2;
55518;PMS5003;41724;51.176;-0.708;2023-05-10T12:41:01;3;2;
55518;PMS5003;41724;51.176;-0.708;2023-05-10T12:43:29;2;2;
55518;PMS5003;41724;51.176;-0.708;2023-05-10T12:45:57;3;3;
55518;PMS5003;41724;51.176;-0.708;2023-05-10T12:48:24;2;2;
55518;PMS5003;41724;51.176;-0.708;2023-05-10T12:50:51;1;1;
55518;PMS5003;41724;51.176;-0.708;2023-05-10T12:53:18;5;5;
55518;PMS5003;41724;51.176;-0.708;2023-05-10T12:55:45;3;3;
55518;PMS5003;41724;51.176;-0.708;2023-05-10T12:58:12;2;1;
55518;PMS5003;41724;51.176;-0.708;2023-05-10T13:00:38;5;3;
55518;PMS5003;41724;51.176;-0.708;2023-05-10T13:03:05;4;3;
55518;PMS5003;41724;51.176;-0.708;2023-05-10T13:05:32;1;1;
55518;PMS5003;41724;51.176;-0.708;2023-05-10T13:07:59;2;1;
55518;PMS5003;41724;51.176;-0.708;2023-05-10T13:10:28;0;0;
55518;PMS5003;41724;51.176;-0.708;2023-05-10T13:12:56;1;1;
55518;PMS5003;41724;51.176;-0.708;2023-05-10T13:15:23;0;0;
55518;PMS5003;41724;51.176;-0.708;2023-05-10T13:17:52;5;3;
55518;PMS5003;41724;51.176;-0.708;2023-05-10T13:20:20;3;1;
55518;PMS5003;41724;51.176;-0.708;2023-05-10T13:22:47;2;2;
55518;PMS5003;41724;51.176;-0.708;2023-05-10T13:25:14;3;2;
55518;PMS5003;41724;51.176;-0.708;2023-05-10T13:27:41;1;1;
55518;PMS5003;41724;51.176;-0.708;2023-05-10T13:30:08;3;2;
55518;PMS5003;41724;51.176;-0.708;2023-05-10T13:32:35;1;1;
55518;PMS5003;41724;51.176;-0.708;2023-05-10T13:35:03;0;0;
55518;PMS5003;41724;51.176;-0.708;2023-05-10T13:37:31;2;2;
55518;PMS5003;41724;51.176;-0.708;2023-05-10T13:39:59;2;2;
55518;PMS5003;41724;51.176;-0.708;2023-05-10T13:42:26;2;2;
55518;PMS5003;41724;51.176;-0.708;2023-05-10T13:44:52;1;1;
55518;PMS5003;41724;51.176;-0.708;2023-05-10T13:47:19;2;2;
55518;PMS5003;41724;51.176;-0.708;2023-05-10T13:49:46;1;1;
55518;PMS5003;41724;51.176;-0.708;2023-05-10T13:52:14;3;2;
55518;PMS5003;41724;51.176;-0.708;2023-05-10T13:54:41;0;0;
55518;PMS5003;41724;51.176;-0.708;2023-05-10T13:57:07;5;2;
55518;PMS5003;41724;51.176;-0.708;2023-05-10T13:59:34;3;3;
55518;PMS5003;41724;51.176;-0.708;2023-05-10T14:02:01;1;1;
55518;PMS5003;41724;51.176;-0.708;2023-05-10T14:04:28;1;1;
55518;PMS5003;41724;51.176;-0.708;2023-05-10T14:06:57;1;1;
55518;PMS5003;41724;51.176;-0.708;2023-05-10T14:09:24;1;1;
55518;PMS5003;41724;51.176;-0.708;2023-05-10T14:11:51;2;2;
55518;PMS5003;41724;51.176;-0.708;2023-05-10T14:14:18;1;0;
55518;PMS5003;41724;51.176;-0.708;2023-05-10T14:16:45;1;1;
55518;PMS5003;41724;51.176;-0.708;2023-05-10T14:19:12;3;3;
55518;PMS5003;41724;51.176;-0.708;2023-05-10T14:21:39;3;3;
55518;PMS5003;41724;51.176;-0.708;2023-05-10T14:24:06;3;2;
55518;PMS5003;41724;51.176;-0.708;2023-05-10T14:26:33;1;1;
55518;PMS5003;41724;51.176;-0.708;2023-05-10T14:29:00;2;2;
55518;PMS5003;41724;51.176;-0.708;2023-05-10T14:31:27;1;1;
55518;PMS5003;41724;51.176;-0.708;2023-05-10T14:33:54;2;2;
55518;PMS5003;41724;51.176;-0.708;2023-05-10T14:36:20;2;2;
55518;PMS5003;41724;51.176;-0.708;2023-05-10T14:38:47;2;2;
55518;PMS5003;41724;51.176;-0.708;2023-05-10T14:41:15;2;1;
55518;PMS5003;41724;51.176;-0.708;2023-05-10T14:43:42;3;2;
55518;PMS5003;41724;51.176;-0.708;2023-05-10T14:46:08;2;1;
55518;PMS5003;41724;51.176;-0.708;2023-05-10T14:48:35;2;2;
55518;PMS5003;41724;51.176;-0.708;2023-05-10T14:51:02;1;1;
55518;PMS5003;41724;51.176;-0.708;2023-05-10T14:53:30;1;1;
55518;PMS5003;41724;51.176;-0.708;2023-05-10T14:55:56;2;2;
55518;PMS5003;41724;51.176;-0.708;2023-05-10T14:58:23;2;2;
55518;PMS5003;41724;51.176;-0.708;2023-05-10T15:00:51;3;2;
55518;PMS5003;41724;51.176;-0.708;2023-05-10T15:03:17;2;2;
55518;PMS5003;41724;51.176;-0.708;2023-05-10T15:05:45;4;3;
55518;PMS5003;41724;51.176;-0.708;2023-05-10T15:08:13;2;2;
55518;PMS5003;41724;51.176;-0.708;2023-05-10T15:10:40;3;3;
55518;PMS5003;41724;51.176;-0.708;2023-05-10T15:13:07;5;5;
55518;PMS5003;41724;51.176;-0.708;2023-05-10T15:15:33;4;4;
55518;PMS5003;41724;51.176;-0.708;2023-05-10T15:18:01;2;2;
55518;PMS5003;41724;51.176;-0.708;2023-05-10T15:20:27;3;2;
55518;PMS5003;41724;51.176;-0.708;2023-05-10T15:22:55;4;4;
55518;PMS5003;41724;51.176;-0.708;2023-05-10T15:25:22;3;3;
55518;PMS5003;41724;51.176;-0.708;2023-05-10T15:27:51;1;1;
55518;PMS5003;41724;51.176;-0.708;2023-05-10T15:30:24;6;4;
55518;PMS5003;41724;51.176;-0.708;2023-05-10T15:32:51;4;3;
55518;PMS5003;41724;51.176;-0.708;2023-05-10T15:35:20;4;3;
55518;PMS5003;41724;51.176;-0.708;2023-05-10T15:37:53;3;2;
55518;PMS5003;41724;51.176;-0.708;2023-05-10T15:40:20;3;3;
55518;PMS5003;41724;51.176;-0.708;2023-05-10T15:42:48;1;0;
55518;PMS5003;41724;51.176;-0.708;2023-05-10T15:45:15;2;2;
55518;PMS5003;41724;51.176;-0.708;2023-05-10T15:47:42;2;2;
55518;PMS5003;41724;51.176;-0.708;2023-05-10T15:50:09;2;2;
55518;PMS5003;41724;51.176;-0.708;2023-05-10T15:52:37;2;2;
55518;PMS5003;41724;51.176;-0.708;2023-05-10T15:55:04;2;2;
55518;PMS5003;41724;51.176;-0.708;2023-05-10T15:57:32;3;3;
55518;PMS5003;41724;51.176;-0.708;2023-05-10T16:00:02;2;1;
55518;PMS5003;41724;51.176;-0.708;2023-05-10T16:02:30;1;1;
55518;PMS5003;41724;51.176;-0.708;2023-05-10T16:04:56;2;2;
55518;PMS5003;41724;51.176;-0.708;2023-05-10T16:07:23;2;1;
55518;PMS5003;41724;51.176;-0.708;2023-05-10T16:09:51;2;2;
55518;PMS5003;41724;51.176;-0.708;2023-05-10T16:12:18;3;2;
55518;PMS5003;41724;51.176;-0.708;2023-05-10T16:14:46;2;1;
55518;PMS5003;41724;51.176;-0.708;2023-05-10T16:17:13;1;1;
55518;PMS5003;41724;51.176;-0.708;2023-05-10T16:19:40;2;2;
55518;PMS5003;41724;51.176;-0.708;2023-05-10T16:22:07;1;1;
55518;PMS5003;41724;51.176;-0.708;2023-05-10T16:24:35;2;2;